createdAt,value
2019-04-30T00:00:34.767Z,79.90
2019-04-30T00:03:20.965Z,79.80
2019-04-30T00:05:53.767Z,79.70
2019-04-30T00:08:20.299Z,80.50
2019-04-30T00:10:48.976Z,80.30
2019-04-30T00:13:20.809Z,80.10
2019-04-30T00:15:52.641Z,80.20
2019-04-30T00:18:18.533Z,80.60
2019-04-30T00:20:47.265Z,80.90
2019-04-30T00:23:17.969Z,80.40
2019-04-30T00:25:46.459Z,80.80
2019-04-30T00:28:15.566Z,80.80
2019-04-30T00:30:47.692Z,80.30
2019-04-30T00:33:21.935Z,80.50
2019-04-30T00:35:45.409Z,80.80
2019-04-30T00:38:15.167Z,80.50
2019-04-30T00:40:45.016Z,80.20
2019-04-30T00:43:15.542Z,80.40
2019-04-30T00:45:47.375Z,80.40
2019-04-30T00:48:19.845Z,81.10
2019-04-30T00:50:45.768Z,81.10
2019-04-30T00:53:16.528Z,81.60
2019-04-30T00:55:48.441Z,81.60
2019-04-30T00:58:23.786Z,81.40
2019-04-30T01:00:47.975Z,82.00
2019-04-30T01:03:21.107Z,82.00
2019-04-30T01:05:49.867Z,82.10
2019-04-30T01:08:21.106Z,82.30
2019-04-30T01:10:50.667Z,82.80
2019-04-30T01:13:19.351Z,83.10
2019-04-30T01:15:51.032Z,82.70
2019-04-30T01:18:19.305Z,82.70
2019-04-30T01:20:48.778Z,82.60
2019-04-30T01:23:19.399Z,82.90
2019-04-30T01:25:51.284Z,83.80
2019-04-30T01:28:22.746Z,83.70
2019-04-30T01:30:49.568Z,83.70
2019-04-30T01:33:19.139Z,83.70
2019-04-30T01:35:48.788Z,83.70
2019-04-30T01:38:18.934Z,84.20
2019-04-30T01:40:51.019Z,84.80
2019-04-30T01:43:23.081Z,85.20
2019-04-30T01:45:48.980Z,85.70
2019-04-30T01:48:19.308Z,85.80
2019-04-30T01:50:48.858Z,85.50
2019-04-30T01:53:18.620Z,86.40
2019-04-30T01:55:49.559Z,86.60
2019-04-30T01:58:30.195Z,86.70
2019-04-30T02:01:03.553Z,87.20
2019-04-30T02:03:32.285Z,87.80
2019-04-30T02:06:01.053Z,89.20
2019-04-30T02:08:29.799Z,88.60
2019-04-30T02:10:59.485Z,89.20
2019-04-30T02:13:29.521Z,89.50
2019-04-30T02:15:59.276Z,89.60
2019-04-30T02:18:29.621Z,89.50
2019-04-30T02:20:59.451Z,89.10
2019-04-30T02:23:29.746Z,89.80
2019-04-30T02:25:59.328Z,89.90
2019-04-30T02:28:29.114Z,90.30
2019-04-30T02:31:00.333Z,90.60
2019-04-30T02:33:30.739Z,90.70
2019-04-30T02:36:06.883Z,90.90
2019-04-30T02:38:39.562Z,90.80
2019-04-30T02:41:09.819Z,90.70
2019-04-30T02:43:41.105Z,90.60
2019-04-30T02:46:12.188Z,90.60
2019-04-30T02:48:42.889Z,90.70
2019-04-30T02:51:14.247Z,90.80
2019-04-30T02:53:51.874Z,90.90
2019-04-30T02:56:26.513Z,91.00
2019-04-30T02:58:54.426Z,91.40
2019-04-30T03:01:24.911Z,91.20
2019-04-30T03:03:53.986Z,91.50
2019-04-30T03:06:23.707Z,91.80
2019-04-30T03:08:52.891Z,91.70
2019-04-30T03:11:21.737Z,91.70
2019-04-30T03:13:50.768Z,91.40
2019-04-30T03:16:21.263Z,91.50
2019-04-30T03:18:54.274Z,91.50
2019-04-30T03:21:40.661Z,91.60
2019-04-30T03:24:10.942Z,91.60
2019-04-30T03:26:40.434Z,91.90
2019-04-30T03:29:11.413Z,92.00
2019-04-30T03:31:44.223Z,91.90
2019-04-30T03:34:17.090Z,91.80
2019-04-30T03:36:41.187Z,91.80
2019-04-30T03:39:10.747Z,91.80
2019-04-30T03:41:41.340Z,91.50
2019-04-30T03:44:24.692Z,91.30
2019-04-30T03:46:41.108Z,91.80
2019-04-30T03:49:12.960Z,91.50
2019-04-30T03:51:40.742Z,91.70
2019-04-30T03:54:10.456Z,91.90
2019-04-30T03:56:40.296Z,92.00
2019-04-30T03:59:10.555Z,91.80
2019-04-30T04:01:41.632Z,91.60
2019-04-30T04:04:21.063Z,91.60
2019-04-30T04:06:51.445Z,91.50
2019-04-30T04:09:22.454Z,91.50
2019-04-30T04:11:52.444Z,91.50
2019-04-30T04:14:21.462Z,91.40
2019-04-30T04:16:51.683Z,91.30
2019-04-30T04:19:20.555Z,91.30
2019-04-30T04:21:51.035Z,91.30
2019-04-30T04:24:20.390Z,91.40
2019-04-30T04:26:50.176Z,91.80
2019-04-30T04:29:19.789Z,91.70
2019-04-30T04:31:50.159Z,91.70
2019-04-30T04:34:19.838Z,91.80
2019-04-30T04:36:50.730Z,91.90
2019-04-30T04:39:20.381Z,91.90
2019-04-30T04:41:50.316Z,92.10
2019-04-30T04:47:30.722Z,91.40
2019-04-30T04:50:04.280Z,91.10
2019-04-30T04:52:34.597Z,91.00
2019-04-30T04:55:06.269Z,90.40
2019-04-30T04:57:35.191Z,90.30
2019-04-30T05:00:07.537Z,89.60
2019-04-30T05:02:43.709Z,89.10
2019-04-30T05:05:12.632Z,88.40
2019-04-30T05:07:41.316Z,88.70
2019-04-30T05:10:10.679Z,89.60
2019-04-30T05:12:39.908Z,89.90
2019-04-30T05:15:12.002Z,90.20
2019-04-30T05:17:41.144Z,90.30
2019-04-30T05:20:13.519Z,90.30
2019-04-30T05:22:42.320Z,90.00
2019-04-30T05:25:11.224Z,90.10
2019-04-30T05:27:39.898Z,89.70
2019-04-30T05:30:12.076Z,88.60
2019-04-30T05:32:39.909Z,88.30
2019-04-30T05:35:09.550Z,88.10
2019-04-30T05:37:41.800Z,87.10
2019-04-30T05:40:10.816Z,85.90
2019-04-30T05:42:39.581Z,84.80
2019-04-30T05:45:10.404Z,83.20
2019-04-30T05:47:39.214Z,82.60
2019-04-30T05:50:09.288Z,82.20
2019-04-30T05:52:39.742Z,82.00
2019-04-30T05:55:08.995Z,81.40
2019-04-30T05:57:40.804Z,80.30
2019-04-30T06:00:09.999Z,79.90
2019-04-30T06:02:39.986Z,79.60
2019-04-30T06:05:09.553Z,79.30
2019-04-30T06:07:39.480Z,79.50
2019-04-30T06:10:10.672Z,80.00
2019-04-30T06:12:55.150Z,80.10
2019-04-30T06:15:25.700Z,79.80
2019-04-30T06:18:04.025Z,79.60
2019-04-30T06:20:28.903Z,79.00
2019-04-30T06:22:59.706Z,78.50
2019-04-30T06:25:37.303Z,78.60
2019-04-30T06:27:59.829Z,77.80
2019-04-30T06:30:29.743Z,77.80
2019-04-30T06:32:59.782Z,78.20
2019-04-30T06:35:29.406Z,77.80
2019-04-30T06:37:58.971Z,76.30
2019-04-30T06:40:29.305Z,76.80
2019-04-30T06:43:00.813Z,77.00
2019-04-30T06:45:31.326Z,77.30
2019-04-30T06:48:03.279Z,76.20
2019-04-30T06:50:32.197Z,75.90
2019-04-30T06:53:04.947Z,75.60
2019-04-30T06:55:35.389Z,74.90
2019-04-30T06:58:12.851Z,73.70
2019-04-30T07:00:40.088Z,72.60
2019-04-30T07:03:09.821Z,72.30
2019-04-30T07:05:39.253Z,71.20
2019-04-30T07:08:38.858Z,70.30
2019-04-30T07:11:16.385Z,69.50
2019-04-30T07:13:46.783Z,70.90
2019-04-30T07:16:15.536Z,70.00
2019-04-30T07:18:44.201Z,69.10
2019-04-30T07:21:13.024Z,69.70
2019-04-30T07:23:41.764Z,69.70
2019-04-30T07:26:13.732Z,68.60
2019-04-30T07:28:47.912Z,66.50
2019-04-30T07:31:14.583Z,66.50
2019-04-30T07:33:43.277Z,66.80
2019-04-30T07:36:12.010Z,65.20
2019-04-30T07:38:43.123Z,63.30
2019-04-30T07:41:10.995Z,63.30
2019-04-30T07:43:39.739Z,63.00
2019-04-30T07:46:09.301Z,63.10
2019-04-30T07:48:40.295Z,63.30
2019-04-30T07:51:10.306Z,64.00
2019-04-30T07:53:40.437Z,62.90
2019-04-30T07:56:24.116Z,62.20
2019-04-30T07:58:39.824Z,60.10
2019-04-30T08:01:10.395Z,60.90
2019-04-30T08:03:46.710Z,59.90
2019-04-30T08:06:18.907Z,59.70
2019-04-30T08:08:46.927Z,59.70
2019-04-30T08:11:23.906Z,59.30
2019-04-30T08:13:46.495Z,57.90
2019-04-30T08:16:16.140Z,56.90
2019-04-30T08:18:44.908Z,56.10
2019-04-30T08:21:13.651Z,56.10
2019-04-30T08:23:42.618Z,55.80
2019-04-30T08:26:11.280Z,55.90
2019-04-30T08:28:40.409Z,54.90
2019-04-30T08:31:09.204Z,54.10
2019-04-30T08:33:40.083Z,53.80
2019-04-30T08:36:09.925Z,53.00
2019-04-30T08:38:39.450Z,46.30
2019-04-30T08:41:09.303Z,45.90
2019-04-30T08:43:39.423Z,45.80
2019-04-30T08:46:09.381Z,47.50
2019-04-30T08:48:46.113Z,47.10
2019-04-30T08:51:09.957Z,45.50
2019-04-30T08:53:41.084Z,45.30
2019-04-30T08:56:10.077Z,45.70
2019-04-30T08:58:39.151Z,46.00
2019-04-30T09:01:26.058Z,46.60
2019-04-30T09:04:13.069Z,45.20
2019-04-30T09:06:41.826Z,44.80
2019-04-30T09:09:12.227Z,45.20
2019-04-30T09:11:52.017Z,44.90
2019-04-30T09:14:11.359Z,44.20
2019-04-30T09:16:40.110Z,45.40
2019-04-30T09:19:09.773Z,44.60
2019-04-30T09:21:40.127Z,43.80
2019-04-30T09:24:09.514Z,46.80
2019-04-30T09:26:39.166Z,47.60
2019-04-30T09:29:09.352Z,42.90
2019-04-30T09:31:40.839Z,43.20
2019-04-30T09:34:17.033Z,44.70
2019-04-30T09:36:39.230Z,46.20
2019-04-30T09:39:09.765Z,44.30
2019-04-30T09:41:40.968Z,45.20
2019-04-30T09:44:09.995Z,45.70
2019-04-30T09:46:38.973Z,45.70
2019-04-30T09:49:09.550Z,45.30
2019-04-30T09:51:39.389Z,43.00
2019-04-30T09:54:11.901Z,41.20
2019-04-30T09:56:39.364Z,42.40
2019-04-30T09:59:09.107Z,43.00
2019-04-30T10:01:37.914Z,42.40
2019-04-30T10:04:06.906Z,40.50
2019-04-30T10:06:39.801Z,40.20
2019-04-30T10:09:09.619Z,37.60
2019-04-30T10:11:50.046Z,38.00
2019-04-30T10:14:19.067Z,39.50
2019-04-30T10:16:52.398Z,39.30
2019-04-30T10:19:21.229Z,39.90
2019-04-30T10:21:49.943Z,40.90
2019-04-30T10:24:19.606Z,42.20
2019-04-30T10:26:48.655Z,42.50
2019-04-30T10:29:18.521Z,42.10
2019-04-30T10:31:49.000Z,42.00
2019-04-30T10:34:17.886Z,39.90
2019-04-30T10:36:46.634Z,38.00
2019-04-30T10:39:15.383Z,37.80
2019-04-30T10:41:44.187Z,35.70
2019-04-30T10:44:12.985Z,36.10
2019-04-30T10:46:41.788Z,33.80
2019-04-30T10:49:10.854Z,34.70
2019-04-30T10:51:39.503Z,33.90
2019-04-30T10:54:08.802Z,35.20
2019-04-30T10:56:37.737Z,30.30
2019-04-30T10:59:06.415Z,26.60
2019-04-30T11:01:35.167Z,26.00
2019-04-30T11:04:05.642Z,25.10
2019-04-30T11:06:34.476Z,25.50
2019-04-30T11:09:03.397Z,25.70
2019-04-30T11:11:32.079Z,24.80
2019-04-30T11:14:00.761Z,24.30
2019-04-30T11:16:29.822Z,24.10
2019-04-30T11:18:59.241Z,23.70
2019-04-30T11:21:29.531Z,23.60
2019-04-30T11:23:59.466Z,23.70
2019-04-30T11:26:32.023Z,23.30
2019-04-30T11:29:02.004Z,24.40
2019-04-30T11:31:34.287Z,24.50
2019-04-30T11:34:04.466Z,25.20
2019-04-30T11:36:33.201Z,23.20
2019-04-30T11:39:01.934Z,23.70
2019-04-30T11:41:33.166Z,23.40
2019-04-30T11:44:01.030Z,24.20
2019-04-30T11:46:49.489Z,24.80
2019-04-30T11:49:18.341Z,24.80
2019-04-30T11:51:47.219Z,24.80
2019-04-30T11:54:16.032Z,23.20
2019-04-30T11:56:44.856Z,23.70
2019-04-30T11:59:13.597Z,24.50
2019-04-30T12:01:42.501Z,23.20
2019-04-30T12:04:11.211Z,23.10
2019-04-30T12:06:39.868Z,23.20
2019-04-30T12:09:12.036Z,23.50
2019-04-30T12:11:42.330Z,24.80
2019-04-30T12:14:11.068Z,24.10
2019-04-30T12:16:39.800Z,24.90
2019-04-30T12:19:09.014Z,25.50
2019-04-30T12:21:38.022Z,25.70
2019-04-30T12:24:11.675Z,27.00
2019-04-30T12:26:41.407Z,26.70
2019-04-30T12:29:11.268Z,27.10
2019-04-30T12:31:39.995Z,27.30
2019-04-30T12:34:08.706Z,27.70
2019-04-30T12:36:38.790Z,26.40
2019-04-30T12:39:07.907Z,26.20
2019-04-30T12:41:36.722Z,26.90
2019-04-30T12:44:07.204Z,27.80
2019-04-30T12:46:35.919Z,27.20
2019-04-30T12:49:12.298Z,27.00
2019-04-30T12:51:50.529Z,27.00
2019-04-30T12:54:23.857Z,27.00
2019-04-30T12:57:02.938Z,27.20
2019-04-30T12:59:31.752Z,26.00
2019-04-30T13:02:00.429Z,26.30
2019-04-30T13:04:29.424Z,25.10
2019-04-30T13:07:01.604Z,25.30
2019-04-30T13:09:30.316Z,26.00
2019-04-30T13:12:00.590Z,25.90
2019-04-30T13:14:30.414Z,24.90
2019-04-30T13:17:00.050Z,24.20
2019-04-30T13:19:30.293Z,24.60
2019-04-30T13:21:59.038Z,24.80
2019-04-30T13:24:31.165Z,24.50
2019-04-30T13:26:59.533Z,24.60
2019-04-30T13:29:39.120Z,24.10
2019-04-30T13:32:08.607Z,23.00
2019-04-30T13:34:44.786Z,23.90
2019-04-30T13:37:13.602Z,24.30
2019-04-30T13:39:53.024Z,24.30
2019-04-30T13:42:38.994Z,26.10
2019-04-30T13:45:08.254Z,26.20
2019-04-30T13:47:38.897Z,24.20
2019-04-30T13:50:09.157Z,24.40
2019-04-30T13:52:38.935Z,24.80
2019-04-30T13:55:10.739Z,24.00
2019-04-30T13:57:38.427Z,24.00
2019-04-30T14:00:13.412Z,23.90
2019-04-30T14:02:44.868Z,24.10
2019-04-30T14:05:15.467Z,24.40
2019-04-30T14:07:59.848Z,25.20
2019-04-30T14:10:30.012Z,25.60
2019-04-30T14:13:00.529Z,25.30
2019-04-30T14:15:29.354Z,25.30
2019-04-30T14:17:59.711Z,25.80
2019-04-30T14:20:28.728Z,25.90
2019-04-30T14:22:57.605Z,26.00
2019-04-30T14:25:26.556Z,26.40
2019-04-30T14:27:55.230Z,26.50
2019-04-30T14:30:24.059Z,25.40
2019-04-30T14:32:52.898Z,26.30
2019-04-30T14:35:21.712Z,27.30
2019-04-30T14:37:50.366Z,28.00
2019-04-30T14:40:20.223Z,28.70
2019-04-30T14:42:51.660Z,28.50
2019-04-30T14:45:23.071Z,28.40
2019-04-30T14:48:01.199Z,27.90
2019-04-30T14:50:31.755Z,27.70
2019-04-30T14:53:02.122Z,28.30
2019-04-30T14:55:32.689Z,28.70
2019-04-30T14:58:03.154Z,29.10
2019-04-30T15:00:36.064Z,30.00
2019-04-30T15:03:15.126Z,29.40
2019-04-30T15:05:48.757Z,29.50
2019-04-30T15:08:14.136Z,29.40
2019-04-30T15:10:42.858Z,29.10
2019-04-30T15:13:12.725Z,29.40
2019-04-30T15:15:41.520Z,29.50
2019-04-30T15:18:10.199Z,28.90
2019-04-30T15:20:39.755Z,28.10
2019-04-30T15:23:10.418Z,26.80
2019-04-30T15:25:39.379Z,25.90
2019-04-30T15:28:09.897Z,25.00
2019-04-30T15:30:38.917Z,25.40
2019-04-30T15:33:13.442Z,25.00
2019-04-30T15:35:42.119Z,24.80
2019-04-30T15:38:10.770Z,25.00
2019-04-30T15:40:39.579Z,25.50
2019-04-30T15:43:08.307Z,24.70
2019-04-30T15:45:39.074Z,24.50
2019-04-30T15:48:08.532Z,23.60
2019-04-30T15:50:39.176Z,23.30
2019-04-30T15:53:09.380Z,24.30
2019-04-30T15:55:38.314Z,24.00
2019-04-30T15:58:23.855Z,23.30
2019-04-30T16:00:52.510Z,22.80
2019-04-30T16:03:28.814Z,23.00
2019-04-30T16:05:57.543Z,22.50
2019-04-30T16:08:39.879Z,22.90
2019-04-30T16:11:12.760Z,22.40
2019-04-30T16:13:49.541Z,22.80
2019-04-30T16:16:19.191Z,23.00
2019-04-30T16:18:49.821Z,23.00
2019-04-30T16:21:19.342Z,22.60
2019-04-30T16:23:49.046Z,22.50
2019-04-30T16:26:18.607Z,22.40
2019-04-30T16:28:49.359Z,23.10
2019-04-30T16:31:23.326Z,23.20
2019-04-30T16:33:51.974Z,23.70
2019-04-30T16:36:20.756Z,24.40
2019-04-30T16:38:49.419Z,25.20
2019-04-30T16:41:30.662Z,25.80
2019-04-30T16:43:48.831Z,26.50
2019-04-30T16:46:17.991Z,27.00
2019-04-30T16:48:49.383Z,27.70
2019-04-30T16:51:18.763Z,28.30
2019-04-30T16:53:49.451Z,29.10
2019-04-30T16:56:18.618Z,30.60
2019-04-30T16:58:59.781Z,31.90
2019-04-30T17:01:29.091Z,33.30
2019-04-30T17:03:59.627Z,34.00
2019-04-30T17:06:38.701Z,34.60
2019-04-30T17:09:09.841Z,34.40
2019-04-30T17:11:40.330Z,35.60
2019-04-30T17:14:10.851Z,36.90
2019-04-30T17:16:39.616Z,38.00
2019-04-30T17:19:09.071Z,38.30
2019-04-30T17:21:40.348Z,38.20
2019-04-30T17:24:09.028Z,39.70
2019-04-30T17:26:39.215Z,40.10
2019-04-30T17:29:09.600Z,41.30
2019-04-30T17:31:38.501Z,41.20
2019-04-30T17:34:07.230Z,41.50
2019-04-30T17:36:36.034Z,42.00
2019-04-30T17:39:09.070Z,41.90
2019-04-30T17:41:37.758Z,41.60
2019-04-30T17:44:06.492Z,41.40
2019-04-30T17:46:35.223Z,41.60
2019-04-30T17:49:03.977Z,43.10
2019-04-30T17:51:32.651Z,44.50
2019-04-30T17:54:16.295Z,44.80
2019-04-30T17:56:46.505Z,45.70
2019-04-30T17:59:15.234Z,45.90
2019-04-30T18:01:45.623Z,45.50
2019-04-30T18:04:14.307Z,45.60
2019-04-30T18:06:43.226Z,45.60
2019-04-30T18:09:11.968Z,45.40
2019-04-30T18:11:40.703Z,45.60
2019-04-30T18:14:09.507Z,45.80
2019-04-30T18:16:38.794Z,46.10
2019-04-30T18:19:15.297Z,47.30
2019-04-30T18:21:48.648Z,47.90
2019-04-30T18:24:33.954Z,49.90
2019-04-30T18:27:04.371Z,48.90
2019-04-30T18:29:33.031Z,49.10
2019-04-30T18:32:02.000Z,49.20
2019-04-30T18:34:30.694Z,49.50
2019-04-30T18:36:59.457Z,50.40
2019-04-30T18:39:28.876Z,50.50
2019-04-30T18:41:57.807Z,51.10
2019-04-30T18:44:26.472Z,51.90
2019-04-30T18:46:55.125Z,52.80
2019-04-30T18:49:23.791Z,53.70
2019-04-30T18:51:52.523Z,54.10
2019-04-30T18:54:21.273Z,54.50
2019-04-30T18:56:49.931Z,54.60
2019-04-30T18:59:19.649Z,55.10
2019-04-30T19:01:51.512Z,55.40
2019-04-30T19:04:20.206Z,55.60
2019-04-30T19:06:49.435Z,56.50
2019-04-30T19:09:29.721Z,56.60
2019-04-30T19:12:19.411Z,56.70
2019-04-30T19:15:07.871Z,56.80
2019-04-30T19:17:44.063Z,57.30
2019-04-30T19:20:14.723Z,57.00
2019-04-30T19:22:43.563Z,57.00
2019-04-30T19:25:13.255Z,56.50
2019-04-30T19:27:42.619Z,56.60
2019-04-30T19:30:12.679Z,56.30
2019-04-30T19:32:41.339Z,56.00
2019-04-30T19:35:10.242Z,56.40
2019-04-30T19:37:40.360Z,56.60
2019-04-30T19:40:09.601Z,56.50
2019-04-30T19:42:39.542Z,56.80
2019-04-30T19:45:12.092Z,57.00
2019-04-30T19:47:39.200Z,57.20
2019-04-30T19:50:10.170Z,57.10
2019-04-30T19:52:38.913Z,57.30
2019-04-30T19:55:07.861Z,56.90
2019-04-30T19:57:36.685Z,57.10
2019-04-30T20:00:06.603Z,57.10
2019-04-30T20:02:35.340Z,56.90
2019-04-30T20:05:05.128Z,57.00
2019-04-30T20:07:33.914Z,57.40
2019-04-30T20:10:04.215Z,57.40
2019-04-30T20:12:33.214Z,57.50
2019-04-30T20:15:02.017Z,57.40
2019-04-30T20:17:30.862Z,57.60
2019-04-30T20:20:01.463Z,57.20
2019-04-30T20:22:29.836Z,57.30
2019-04-30T20:24:59.268Z,57.70
2019-04-30T20:27:29.828Z,57.90
2019-04-30T20:29:59.257Z,57.60
2019-04-30T20:32:36.325Z,57.70
2019-04-30T20:34:59.794Z,57.60
2019-04-30T20:37:29.497Z,57.40
2019-04-30T20:40:00.106Z,57.40
2019-04-30T20:42:28.771Z,57.10
2019-04-30T20:44:58.878Z,56.70
2019-04-30T20:47:29.870Z,56.90
2019-04-30T20:49:58.104Z,57.00
2019-04-30T20:52:26.745Z,57.10
2019-04-30T20:54:57.937Z,57.60
2019-04-30T20:57:26.674Z,57.60
2019-04-30T20:59:55.416Z,57.70
2019-04-30T21:02:24.062Z,57.80
2019-04-30T21:04:52.747Z,57.50
2019-04-30T21:07:21.405Z,57.90
2019-04-30T21:09:50.088Z,57.80
2019-04-30T21:12:18.983Z,57.90
2019-04-30T21:14:48.570Z,58.10
2019-04-30T21:17:17.494Z,58.20
2019-04-30T21:19:46.137Z,58.10
2019-04-30T21:22:14.892Z,58.00
2019-04-30T21:24:43.533Z,57.80
2019-04-30T21:27:12.207Z,57.50
2019-04-30T21:29:40.928Z,57.70
2019-04-30T21:32:13.956Z,57.70
2019-04-30T21:34:44.243Z,57.70
2019-04-30T21:37:13.065Z,57.30
2019-04-30T21:39:46.226Z,57.30
2019-04-30T21:42:14.897Z,57.40
2019-04-30T21:44:43.620Z,57.50
2019-04-30T21:47:13.971Z,57.20
2019-04-30T21:49:42.704Z,57.60
2019-04-30T21:52:11.430Z,58.00
2019-04-30T21:54:40.223Z,57.80
2019-04-30T21:57:08.899Z,57.60
2019-04-30T21:59:38.861Z,57.20
2019-04-30T22:02:07.783Z,57.20
2019-04-30T22:04:36.529Z,57.30
2019-04-30T22:07:06.304Z,57.10
2019-04-30T22:09:36.083Z,56.50
2019-04-30T22:12:05.069Z,56.30
2019-04-30T22:14:33.739Z,56.20
2019-04-30T22:17:02.636Z,56.30
2019-04-30T22:19:31.314Z,56.10
2019-04-30T22:21:59.999Z,56.30
2019-04-30T22:24:30.520Z,56.90
2019-04-30T22:26:59.393Z,57.40
2019-04-30T22:29:38.734Z,57.70
2019-04-30T22:31:59.398Z,57.00
2019-04-30T22:34:28.634Z,57.10
2019-04-30T22:36:58.630Z,57.00
2019-04-30T22:39:44.237Z,56.90
2019-04-30T22:42:31.805Z,56.90
2019-04-30T22:45:01.730Z,57.00
2019-04-30T22:47:30.459Z,56.90
2019-04-30T22:49:59.270Z,56.90
2019-04-30T22:52:27.911Z,57.30
2019-04-30T22:54:56.712Z,57.40
2019-04-30T22:57:25.367Z,57.20
2019-04-30T22:59:54.086Z,56.50
2019-04-30T23:02:30.376Z,56.50
2019-04-30T23:05:00.767Z,57.10
2019-04-30T23:07:29.519Z,57.60
2019-04-30T23:09:58.265Z,57.90
2019-04-30T23:12:27.005Z,58.00
2019-04-30T23:14:55.714Z,58.80
2019-04-30T23:17:24.377Z,58.60
2019-04-30T23:19:53.077Z,58.60
2019-04-30T23:22:21.733Z,58.30
2019-04-30T23:24:50.371Z,57.50
2019-04-30T23:27:19.025Z,57.20
2019-04-30T23:29:47.773Z,56.90
2019-04-30T23:32:16.427Z,56.50
2019-04-30T23:34:45.164Z,56.60
2019-04-30T23:37:13.813Z,56.30
2019-04-30T23:39:42.532Z,56.60
2019-04-30T23:42:11.145Z,56.60
2019-04-30T23:44:39.880Z,56.20
2019-04-30T23:47:08.559Z,56.30
2019-04-30T23:49:37.225Z,56.20
2019-04-30T23:52:05.958Z,57.40
2019-04-30T23:54:34.603Z,57.10
2019-04-30T23:57:03.259Z,57.60
2019-04-30T23:59:31.901Z,57.60
